HVN415 RKSI-VVNB
Flight info
| Callsign | HVN415 |
|---|---|
| Flight time | N/A |
| Altitude | 32000 |
| Route | BOPTA2Y BOPTA Z51 BEDES Y711 PONIK A593 LAMEN/K0833F280 A593 AKARA/K0830S0840 A593 PUD/K0882S0980 A599 NXD W131 AKDIM A470 DUBGO W134 ELNEX A599 ERVOP/K0869S1040 A599 GYA R474 TEBAK/K0878F340 R474 NAKHA NAKHA3K |
| Aircraft | A21N/M-SDE2E3FGHIRWXY/LB1 |
Departure
| Time | 2026-05-01 09:22 |
|---|---|
| Airport | Incheon International Airport (RKSI) |
Arrival
| Time | N/A |
|---|---|
| Airport | Noi Bai International Airport (VVNB) |
| Time | Latitude | Longitude | Altitude | Speed | Heading |
|---|---|---|---|---|---|
| 2026-05-01 08:40 | 37.45466 | 126.44428 | 38 ft | 0 kts | 324° |
| 2026-05-01 09:07 | 37.45460 | 126.44433 | 38 ft | 4 kts | 324° |
| 2026-05-01 09:07 | 37.45438 | 126.44452 | 36 ft | 4 kts | 324° |
| 2026-05-01 09:08 | 37.45419 | 126.44469 | 37 ft | 4 kts | 314° |
| 2026-05-01 09:08 | 37.45411 | 126.44494 | 35 ft | 4 kts | 255° |
| 2026-05-01 09:08 | 37.45421 | 126.44520 | 37 ft | 1 kts | 234° |
| 2026-05-01 09:08 | 37.45424 | 126.44524 | 37 ft | 0 kts | 234° |
| 2026-05-01 09:09 | 37.45424 | 126.44525 | 37 ft | 0 kts | 234° |
| 2026-05-01 09:10 | 37.45526 | 126.44701 | 36 ft | 0 kts | 235° |
| 2026-05-01 09:15 | 37.45464 | 126.44598 | 36 ft | 12 kts | 234° |
| 2026-05-01 09:17 | 37.45430 | 126.44538 | 36 ft | 6 kts | 234° |
| 2026-05-01 09:17 | 37.45394 | 126.44500 | 34 ft | 8 kts | 198° |
| 2026-05-01 09:17 | 37.45284 | 126.44568 | 37 ft | 10 kts | 156° |
| 2026-05-01 09:18 | 37.45219 | 126.44529 | 38 ft | 12 kts | 229° |
| 2026-05-01 09:18 | 37.45114 | 126.44344 | 38 ft | 14 kts | 234° |
| 2026-05-01 09:19 | 37.44993 | 126.44128 | 38 ft | 16 kts | 234° |
| 2026-05-01 09:19 | 37.44941 | 126.44075 | 38 ft | 9 kts | 177° |
| 2026-05-01 09:19 | 37.44883 | 126.44113 | 38 ft | 10 kts | 147° |
| 2026-05-01 09:20 | 37.44751 | 126.44229 | 38 ft | 13 kts | 145° |
| 2026-05-01 09:20 | 37.44593 | 126.44371 | 38 ft | 15 kts | 145° |
| 2026-05-01 09:21 | 37.44425 | 126.44300 | 38 ft | 17 kts | 235° |
| 2026-05-01 09:21 | 37.44369 | 126.44198 | 36 ft | 13 kts | 235° |
| 2026-05-01 09:21 | 37.44391 | 126.44131 | 38 ft | 8 kts | 324° |
| 2026-05-01 09:22 | 37.45279 | 126.43336 | 38 ft | 144 kts | 323° |
| 2026-05-01 09:22 | 37.47141 | 126.41703 | 1007 ft | 163 kts | 317° |
| 2026-05-01 09:23 | 37.48005 | 126.40804 | 1720 ft | 158 kts | 308° |
| 2026-05-01 09:23 | 37.49219 | 126.38517 | 2804 ft | 162 kts | 310° |
| 2026-05-01 09:24 | 37.50425 | 126.36020 | 3554 ft | 186 kts | 278° |
| 2026-05-01 09:24 | 37.50458 | 126.34326 | 3927 ft | 201 kts | 273° |
| 2026-05-01 09:24 | 37.50528 | 126.30527 | 4578 ft | 236 kts | 274° |
| 2026-05-01 09:25 | 37.50627 | 126.26127 | 5538 ft | 260 kts | 274° |
| 2026-05-01 09:25 | 37.50692 | 126.21518 | 6892 ft | 267 kts | 269° |
| 2026-05-01 09:26 | 37.50202 | 126.19264 | 7521 ft | 278 kts | 246° |
| 2026-05-01 09:26 | 37.47097 | 126.16236 | 8757 ft | 300 kts | 204° |
| 2026-05-01 09:26 | 37.45107 | 126.15382 | 9375 ft | 305 kts | 200° |
| 2026-05-01 09:27 | 37.40801 | 126.14886 | 10371 ft | 325 kts | 172° |
| 2026-05-01 09:27 | 37.38601 | 126.15766 | 10643 ft | 341 kts | 153° |
| 2026-05-01 09:27 | 37.36480 | 126.17236 | 10902 ft | 356 kts | 149° |
| 2026-05-01 09:28 | 37.34301 | 126.18847 | 11136 ft | 371 kts | 149° |
| 2026-05-01 09:28 | 37.32025 | 126.20511 | 11369 ft | 386 kts | 149° |
| 2026-05-01 09:28 | 37.29648 | 126.22221 | 11590 ft | 401 kts | 149° |
| 2026-05-01 09:28 | 37.27178 | 126.23981 | 11804 ft | 414 kts | 150° |
| 2026-05-01 09:29 | 37.22037 | 126.27618 | 12231 ft | 436 kts | 150° |
| 2026-05-01 09:29 | 37.19380 | 126.29491 | 12602 ft | 440 kts | 150° |
| 2026-05-01 09:30 | 37.14009 | 126.33280 | 13425 ft | 446 kts | 150° |
| 2026-05-01 09:30 | 37.11296 | 126.35196 | 13834 ft | 449 kts | 150° |
| 2026-05-01 09:30 | 37.05811 | 126.39064 | 14539 ft | 454 kts | 150° |
| 2026-05-01 09:31 | 37.03054 | 126.41006 | 14931 ft | 457 kts | 150° |
| 2026-05-01 09:31 | 37.00270 | 126.42960 | 15371 ft | 460 kts | 150° |
| 2026-05-01 09:31 | 36.94639 | 126.46904 | 16245 ft | 466 kts | 150° |
| 2026-05-01 09:32 | 36.91794 | 126.48891 | 16653 ft | 470 kts | 150° |
| 2026-05-01 09:32 | 36.86050 | 126.52901 | 17434 ft | 476 kts | 151° |
| 2026-05-01 09:32 | 36.83189 | 126.54903 | 17836 ft | 479 kts | 151° |
| 2026-05-01 09:33 | 36.80270 | 126.56943 | 18216 ft | 482 kts | 151° |
| 2026-05-01 09:33 | 36.77330 | 126.58983 | 18510 ft | 485 kts | 151° |
| 2026-05-01 09:33 | 36.71161 | 126.62466 | 19078 ft | 489 kts | 166° |
| 2026-05-01 09:34 | 36.67867 | 126.63589 | 19381 ft | 491 kts | 167° |
| 2026-05-01 09:34 | 36.64553 | 126.64667 | 19720 ft | 494 kts | 168° |
| 2026-05-01 09:34 | 36.57869 | 126.66872 | 20316 ft | 499 kts | 167° |
| 2026-05-01 09:35 | 36.54510 | 126.67993 | 20608 ft | 501 kts | 168° |
| 2026-05-01 09:35 | 36.47778 | 126.70252 | 21241 ft | 507 kts | 168° |
| 2026-05-01 09:35 | 36.44352 | 126.71396 | 21599 ft | 510 kts | 168° |
| 2026-05-01 09:36 | 36.40904 | 126.72549 | 21941 ft | 513 kts | 168° |
| 2026-05-01 09:36 | 36.37457 | 126.73704 | 22261 ft | 516 kts | 168° |
| 2026-05-01 09:36 | 36.33967 | 126.74878 | 22562 ft | 519 kts | 168° |
| 2026-05-01 09:36 | 36.30477 | 126.76057 | 22825 ft | 522 kts | 168° |
| 2026-05-01 09:37 | 36.26958 | 126.77246 | 23085 ft | 525 kts | 168° |
| 2026-05-01 09:37 | 36.19905 | 126.79626 | 23583 ft | 531 kts | 169° |
| 2026-05-01 09:37 | 36.16326 | 126.80708 | 23823 ft | 529 kts | 174° |
| 2026-05-01 09:38 | 36.09121 | 126.80667 | 24377 ft | 515 kts | 192° |
| 2026-05-01 09:38 | 36.05564 | 126.80248 | 24661 ft | 514 kts | 192° |
| 2026-05-01 09:38 | 36.01990 | 126.79825 | 24971 ft | 514 kts | 192° |
| 2026-05-01 09:39 | 35.94871 | 126.79040 | 25611 ft | 512 kts | 192° |
| 2026-05-01 09:39 | 35.91327 | 126.78658 | 25918 ft | 511 kts | 192° |
| 2026-05-01 09:39 | 35.87787 | 126.78286 | 26239 ft | 510 kts | 192° |
| 2026-05-01 09:40 | 35.84250 | 126.77915 | 26596 ft | 508 kts | 193° |
| 2026-05-01 09:40 | 35.77215 | 126.77158 | 27235 ft | 505 kts | 193° |
| 2026-05-01 09:40 | 35.73760 | 126.76769 | 27560 ft | 504 kts | 193° |
| 2026-05-01 09:41 | 35.70276 | 126.76385 | 27911 ft | 502 kts | 193° |
| 2026-05-01 09:41 | 35.63332 | 126.75627 | 28559 ft | 499 kts | 194° |
| 2026-05-01 09:41 | 35.59872 | 126.75256 | 28868 ft | 498 kts | 194° |
| 2026-05-01 09:42 | 35.56424 | 126.74887 | 29187 ft | 496 kts | 194° |
| 2026-05-01 09:42 | 35.52987 | 126.74523 | 29513 ft | 495 kts | 194° |
| 2026-05-01 09:42 | 35.46150 | 126.73814 | 30113 ft | 492 kts | 194° |
| 2026-05-01 09:43 | 35.39325 | 126.73081 | 30495 ft | 492 kts | 194° |
| 2026-05-01 09:43 | 35.35909 | 126.72715 | 30681 ft | 492 kts | 194° |
| 2026-05-01 09:43 | 35.32548 | 126.72353 | 30857 ft | 492 kts | 194° |
| 2026-05-01 09:44 | 35.25718 | 126.71624 | 31223 ft | 492 kts | 195° |
| 2026-05-01 09:44 | 35.22309 | 126.71249 | 31413 ft | 492 kts | 195° |
| 2026-05-01 09:44 | 35.18890 | 126.70887 | 31597 ft | 492 kts | 195° |
| 2026-05-01 09:45 | 35.15477 | 126.70529 | 31759 ft | 492 kts | 195° |
| 2026-05-01 09:45 | 35.08645 | 126.69810 | 31998 ft | 493 kts | 195° |
| 2026-05-01 09:45 | 35.05220 | 126.69451 | 31998 ft | 493 kts | 195° |
| 2026-05-01 09:46 | 34.98432 | 126.68732 | 31953 ft | 492 kts | 195° |
| 2026-05-01 09:46 | 34.91610 | 126.68009 | 31957 ft | 492 kts | 195° |
| 2026-05-01 09:47 | 34.84798 | 126.67285 | 31958 ft | 492 kts | 195° |
| 2026-05-01 09:47 | 34.77975 | 126.66563 | 31961 ft | 492 kts | 195° |
| 2026-05-01 09:48 | 34.71148 | 126.65846 | 31954 ft | 491 kts | 195° |
| 2026-05-01 09:48 | 34.64324 | 126.65128 | 31966 ft | 491 kts | 195° |
| 2026-05-01 09:49 | 34.57566 | 126.64411 | 31971 ft | 491 kts | 195° |
| 2026-05-01 09:49 | 34.50739 | 126.63699 | 31971 ft | 491 kts | 194° |
| 2026-05-01 09:50 | 34.43930 | 126.62989 | 31965 ft | 490 kts | 194° |
| 2026-05-01 09:50 | 34.37174 | 126.62282 | 31971 ft | 489 kts | 194° |
| 2026-05-01 09:51 | 34.30378 | 126.61576 | 31976 ft | 489 kts | 194° |
| 2026-05-01 09:51 | 34.23592 | 126.60870 | 31977 ft | 489 kts | 194° |
| 2026-05-01 09:52 | 34.16818 | 126.60162 | 31982 ft | 488 kts | 194° |
| 2026-05-01 09:52 | 34.10076 | 126.59459 | 31993 ft | 488 kts | 194° |
| 2026-05-01 09:53 | 34.03305 | 126.58754 | 31991 ft | 488 kts | 194° |
| 2026-05-01 09:53 | 33.96531 | 126.58052 | 31994 ft | 488 kts | 194° |
| 2026-05-01 09:54 | 33.89762 | 126.57351 | 32000 ft | 488 kts | 194° |
| 2026-05-01 09:54 | 33.84173 | 126.56594 | 32002 ft | 479 kts | 202° |
| 2026-05-01 09:55 | 33.81025 | 126.55493 | 32010 ft | 468 kts | 209° |
| 2026-05-01 09:55 | 33.77966 | 126.54154 | 32010 ft | 467 kts | 210° |
| 2026-05-01 09:55 | 33.71863 | 126.51429 | 32018 ft | 468 kts | 210° |
| 2026-05-01 09:56 | 33.65727 | 126.48760 | 32018 ft | 469 kts | 210° |
| 2026-05-01 09:56 | 33.59619 | 126.46115 | 32020 ft | 469 kts | 210° |
| 2026-05-01 09:57 | 33.53468 | 126.43457 | 32021 ft | 470 kts | 210° |
| 2026-05-01 09:57 | 33.47310 | 126.40803 | 32019 ft | 470 kts | 209° |
| 2026-05-01 09:58 | 33.41153 | 126.38154 | 32022 ft | 470 kts | 209° |
| 2026-05-01 09:58 | 33.34998 | 126.35509 | 32019 ft | 469 kts | 209° |
| 2026-05-01 09:59 | 33.28837 | 126.32863 | 32020 ft | 469 kts | 209° |
| 2026-05-01 09:59 | 33.22739 | 126.30248 | 32028 ft | 469 kts | 209° |